Terminal Aerodrome Forecast
Issued by NWS

Home | Current Version | Previous Version | Graphics & Text | Print | Product List | Glossary On
Versions: 1 2 3 4 5 6 7 8 9 10 11 12 13 14 15
898
FTUS42 KMHX 201141
TAFOAJ
TAF
KOAJ 201141Z 2012/2112 00000KT 1SM BR OVC002
     FM201230 25004KT P6SM SCT030
     FM201700 23007KT P6SM VCSH SCT045
     FM210000 21005KT P6SM SCT040
      AMD LTD TO CLD VIS AND WIND=

USA.gov is the U.S. government's official web portal to all federal, state and local government web resources and services.